sensor_id;sensor_type;location;lat;lon;timestamp;P1;durP1;ratioP1;P2;durP2;ratioP2
27113;SDS011;14648;49.730;8.614;2023-03-01T00:00:20;13.50;;;8.50;;
27113;SDS011;14648;49.730;8.614;2023-03-01T00:02:46;11.73;;;7.63;;
27113;SDS011;14648;49.730;8.614;2023-03-01T00:05:11;14.73;;;8.20;;
27113;SDS011;14648;49.730;8.614;2023-03-01T00:07:37;13.80;;;7.60;;
27113;SDS011;14648;49.730;8.614;2023-03-01T00:10:03;11.60;;;7.70;;
27113;SDS011;14648;49.730;8.614;2023-03-01T00:12:29;13.80;;;8.37;;
27113;SDS011;14648;49.730;8.614;2023-03-01T00:14:56;13.20;;;8.00;;
27113;SDS011;14648;49.730;8.614;2023-03-01T00:17:22;20.73;;;8.67;;
27113;SDS011;14648;49.730;8.614;2023-03-01T00:19:47;12.87;;;7.17;;
27113;SDS011;14648;49.730;8.614;2023-03-01T00:22:13;11.80;;;7.87;;
27113;SDS011;14648;49.730;8.614;2023-03-01T00:24:39;13.13;;;8.90;;
27113;SDS011;14648;49.730;8.614;2023-03-01T00:27:04;15.63;;;8.83;;
27113;SDS011;14648;49.730;8.614;2023-03-01T00:29:30;11.80;;;7.70;;
27113;SDS011;14648;49.730;8.614;2023-03-01T00:31:55;14.60;;;7.60;;
27113;SDS011;14648;49.730;8.614;2023-03-01T00:34:21;15.33;;;8.90;;
27113;SDS011;14648;49.730;8.614;2023-03-01T00:36:47;15.67;;;8.80;;
27113;SDS011;14648;49.730;8.614;2023-03-01T00:39:13;12.90;;;8.77;;
27113;SDS011;14648;49.730;8.614;2023-03-01T00:41:40;15.13;;;8.67;;
27113;SDS011;14648;49.730;8.614;2023-03-01T00:44:07;18.93;;;8.73;;
27113;SDS011;14648;49.730;8.614;2023-03-01T00:46:33;13.60;;;8.70;;
27113;SDS011;14648;49.730;8.614;2023-03-01T00:48:59;12.87;;;8.43;;
27113;SDS011;14648;49.730;8.614;2023-03-01T00:51:27;14.07;;;9.23;;
27113;SDS011;14648;49.730;8.614;2023-03-01T00:53:55;15.20;;;7.87;;
27113;SDS011;14648;49.730;8.614;2023-03-01T00:56:24;16.23;;;9.00;;
27113;SDS011;14648;49.730;8.614;2023-03-01T00:58:50;11.30;;;8.20;;
27113;SDS011;14648;49.730;8.614;2023-03-01T01:01:20;13.50;;;9.50;;
27113;SDS011;14648;49.730;8.614;2023-03-01T01:03:56;13.53;;;8.73;;
27113;SDS011;14648;49.730;8.614;2023-03-01T01:06:32;15.13;;;7.80;;
27113;SDS011;14648;49.730;8.614;2023-03-01T01:09:01;17.53;;;9.13;;
27113;SDS011;14648;49.730;8.614;2023-03-01T01:11:29;16.87;;;9.97;;
27113;SDS011;14648;49.730;8.614;2023-03-01T01:13:56;13.77;;;8.20;;
27113;SDS011;14648;49.730;8.614;2023-03-01T01:16:23;14.53;;;8.93;;
27113;SDS011;14648;49.730;8.614;2023-03-01T01:18:51;13.57;;;8.37;;
27113;SDS011;14648;49.730;8.614;2023-03-01T01:21:19;14.33;;;9.03;;
27113;SDS011;14648;49.730;8.614;2023-03-01T01:23:51;17.00;;;9.10;;
27113;SDS011;14648;49.730;8.614;2023-03-01T01:26:24;18.03;;;9.00;;
27113;SDS011;14648;49.730;8.614;2023-03-01T01:28:53;19.10;;;9.50;;
27113;SDS011;14648;49.730;8.614;2023-03-01T01:31:23;13.53;;;8.47;;
27113;SDS011;14648;49.730;8.614;2023-03-01T01:33:50;15.23;;;8.87;;
27113;SDS011;14648;49.730;8.614;2023-03-01T01:36:17;18.97;;;8.93;;
27113;SDS011;14648;49.730;8.614;2023-03-01T01:38:43;14.00;;;9.00;;
27113;SDS011;14648;49.730;8.614;2023-03-01T01:41:09;14.93;;;8.50;;
27113;SDS011;14648;49.730;8.614;2023-03-01T01:43:41;16.30;;;9.70;;
27113;SDS011;14648;49.730;8.614;2023-03-01T01:48:55;14.53;;;7.40;;
27113;SDS011;14648;49.730;8.614;2023-03-01T01:51:35;19.17;;;8.30;;
27113;SDS011;14648;49.730;8.614;2023-03-01T01:54:07;12.60;;;7.80;;
27113;SDS011;14648;49.730;8.614;2023-03-01T01:56:41;14.87;;;9.20;;
27113;SDS011;14648;49.730;8.614;2023-03-01T01:59:14;12.90;;;8.70;;
27113;SDS011;14648;49.730;8.614;2023-03-01T02:01:40;14.23;;;8.80;;
27113;SDS011;14648;49.730;8.614;2023-03-01T02:04:06;16.27;;;8.90;;
27113;SDS011;14648;49.730;8.614;2023-03-01T02:06:39;12.60;;;7.83;;
27113;SDS011;14648;49.730;8.614;2023-03-01T02:09:15;17.20;;;9.40;;
27113;SDS011;14648;49.730;8.614;2023-03-01T02:11:46;16.40;;;9.67;;
27113;SDS011;14648;49.730;8.614;2023-03-01T02:14:12;18.30;;;8.97;;
27113;SDS011;14648;49.730;8.614;2023-03-01T02:16:40;13.30;;;8.57;;
27113;SDS011;14648;49.730;8.614;2023-03-01T02:19:07;15.87;;;8.70;;
27113;SDS011;14648;49.730;8.614;2023-03-01T02:27:36;14.83;;;8.87;;
27113;SDS011;14648;49.730;8.614;2023-03-01T02:30:15;13.77;;;8.70;;
27113;SDS011;14648;49.730;8.614;2023-03-01T02:32:42;19.97;;;9.23;;
27113;SDS011;14648;49.730;8.614;2023-03-01T02:35:12;15.67;;;8.87;;
27113;SDS011;14648;49.730;8.614;2023-03-01T02:37:41;17.50;;;8.90;;
27113;SDS011;14648;49.730;8.614;2023-03-01T02:40:11;17.63;;;9.10;;
27113;SDS011;14648;49.730;8.614;2023-03-01T02:43:00;16.03;;;8.47;;
27113;SDS011;14648;49.730;8.614;2023-03-01T02:45:26;14.10;;;9.10;;
27113;SDS011;14648;49.730;8.614;2023-03-01T02:47:56;17.43;;;9.67;;
27113;SDS011;14648;49.730;8.614;2023-03-01T02:53:15;17.90;;;9.17;;
27113;SDS011;14648;49.730;8.614;2023-03-01T02:55:48;16.03;;;8.73;;
27113;SDS011;14648;49.730;8.614;2023-03-01T02:58:14;19.13;;;9.37;;
27113;SDS011;14648;49.730;8.614;2023-03-01T03:00:41;15.70;;;10.07;;
27113;SDS011;14648;49.730;8.614;2023-03-01T03:03:13;23.37;;;8.57;;
27113;SDS011;14648;49.730;8.614;2023-03-01T03:05:40;19.47;;;9.20;;
27113;SDS011;14648;49.730;8.614;2023-03-01T03:08:07;14.57;;;8.77;;
27113;SDS011;14648;49.730;8.614;2023-03-01T03:10:34;20.07;;;9.90;;
27113;SDS011;14648;49.730;8.614;2023-03-01T03:13:05;17.10;;;10.00;;
27113;SDS011;14648;49.730;8.614;2023-03-01T03:15:34;16.53;;;9.37;;
27113;SDS011;14648;49.730;8.614;2023-03-01T03:18:01;13.90;;;8.70;;
27113;SDS011;14648;49.730;8.614;2023-03-01T03:20:30;14.03;;;8.53;;
27113;SDS011;14648;49.730;8.614;2023-03-01T03:22:56;13.20;;;8.27;;
27113;SDS011;14648;49.730;8.614;2023-03-01T03:25:26;18.17;;;8.30;;
27113;SDS011;14648;49.730;8.614;2023-03-01T03:27:54;15.37;;;9.27;;
27113;SDS011;14648;49.730;8.614;2023-03-01T03:30:28;21.57;;;10.23;;
27113;SDS011;14648;49.730;8.614;2023-03-01T03:32:57;16.30;;;9.47;;
27113;SDS011;14648;49.730;8.614;2023-03-01T03:35:25;17.30;;;10.37;;
27113;SDS011;14648;49.730;8.614;2023-03-01T03:38:00;15.00;;;8.73;;
27113;SDS011;14648;49.730;8.614;2023-03-01T03:40:41;16.63;;;10.23;;
27113;SDS011;14648;49.730;8.614;2023-03-01T03:43:14;16.67;;;9.67;;
27113;SDS011;14648;49.730;8.614;2023-03-01T03:45:45;16.57;;;8.80;;
27113;SDS011;14648;49.730;8.614;2023-03-01T03:48:12;16.57;;;10.57;;
27113;SDS011;14648;49.730;8.614;2023-03-01T03:50:39;15.83;;;8.40;;
27113;SDS011;14648;49.730;8.614;2023-03-01T03:53:07;14.37;;;9.33;;
27113;SDS011;14648;49.730;8.614;2023-03-01T03:55:35;14.90;;;9.07;;
27113;SDS011;14648;49.730;8.614;2023-03-01T03:58:04;20.63;;;12.10;;
27113;SDS011;14648;49.730;8.614;2023-03-01T04:00:33;15.40;;;9.83;;
27113;SDS011;14648;49.730;8.614;2023-03-01T04:03:04;16.93;;;9.87;;
27113;SDS011;14648;49.730;8.614;2023-03-01T04:05:30;16.00;;;9.63;;
27113;SDS011;14648;49.730;8.614;2023-03-01T04:07:56;15.93;;;8.70;;
27113;SDS011;14648;49.730;8.614;2023-03-01T04:10:32;16.17;;;8.90;;
27113;SDS011;14648;49.730;8.614;2023-03-01T04:13:04;13.93;;;8.27;;
27113;SDS011;14648;49.730;8.614;2023-03-01T04:15:32;18.57;;;9.17;;
27113;SDS011;14648;49.730;8.614;2023-03-01T04:17:58;18.70;;;9.03;;
27113;SDS011;14648;49.730;8.614;2023-03-01T04:20:29;16.47;;;9.03;;
27113;SDS011;14648;49.730;8.614;2023-03-01T04:23:06;17.10;;;8.43;;
27113;SDS011;14648;49.730;8.614;2023-03-01T04:25:39;18.17;;;8.83;;
27113;SDS011;14648;49.730;8.614;2023-03-01T04:28:35;17.60;;;9.23;;
27113;SDS011;14648;49.730;8.614;2023-03-01T04:31:12;16.00;;;9.37;;
27113;SDS011;14648;49.730;8.614;2023-03-01T04:33:49;18.70;;;10.20;;
27113;SDS011;14648;49.730;8.614;2023-03-01T04:36:24;15.57;;;10.03;;
27113;SDS011;14648;49.730;8.614;2023-03-01T04:38:53;17.30;;;9.10;;
27113;SDS011;14648;49.730;8.614;2023-03-01T04:41:20;20.70;;;9.70;;
27113;SDS011;14648;49.730;8.614;2023-03-01T04:43:48;13.37;;;8.47;;
27113;SDS011;14648;49.730;8.614;2023-03-01T04:46:15;21.07;;;10.73;;
27113;SDS011;14648;49.730;8.614;2023-03-01T04:48:43;18.40;;;8.90;;
27113;SDS011;14648;49.730;8.614;2023-03-01T04:51:10;14.10;;;9.30;;
27113;SDS011;14648;49.730;8.614;2023-03-01T04:53:40;18.40;;;9.70;;
27113;SDS011;14648;49.730;8.614;2023-03-01T04:56:06;17.20;;;9.60;;
27113;SDS011;14648;49.730;8.614;2023-03-01T04:58:32;16.40;;;9.53;;
27113;SDS011;14648;49.730;8.614;2023-03-01T05:00:58;12.77;;;9.43;;
27113;SDS011;14648;49.730;8.614;2023-03-01T05:03:23;16.40;;;9.97;;
27113;SDS011;14648;49.730;8.614;2023-03-01T05:05:50;16.23;;;9.57;;
27113;SDS011;14648;49.730;8.614;2023-03-01T05:08:17;16.30;;;9.40;;
27113;SDS011;14648;49.730;8.614;2023-03-01T05:10:44;18.80;;;9.43;;
27113;SDS011;14648;49.730;8.614;2023-03-01T05:13:14;20.70;;;9.30;;
27113;SDS011;14648;49.730;8.614;2023-03-01T05:15:45;17.07;;;9.43;;
27113;SDS011;14648;49.730;8.614;2023-03-01T05:18:25;13.30;;;8.67;;
27113;SDS011;14648;49.730;8.614;2023-03-01T05:20:53;15.33;;;9.23;;
27113;SDS011;14648;49.730;8.614;2023-03-01T05:23:37;16.13;;;8.17;;
27113;SDS011;14648;49.730;8.614;2023-03-01T05:26:04;15.00;;;9.60;;
27113;SDS011;14648;49.730;8.614;2023-03-01T05:28:31;20.27;;;11.37;;
27113;SDS011;14648;49.730;8.614;2023-03-01T05:30:57;18.93;;;10.17;;
27113;SDS011;14648;49.730;8.614;2023-03-01T05:33:24;16.53;;;9.40;;
27113;SDS011;14648;49.730;8.614;2023-03-01T05:35:51;22.47;;;9.40;;
27113;SDS011;14648;49.730;8.614;2023-03-01T05:38:18;12.17;;;8.17;;
27113;SDS011;14648;49.730;8.614;2023-03-01T05:40:46;17.50;;;9.70;;
27113;SDS011;14648;49.730;8.614;2023-03-01T05:43:14;13.93;;;8.50;;
27113;SDS011;14648;49.730;8.614;2023-03-01T05:45:42;15.33;;;9.57;;
27113;SDS011;14648;49.730;8.614;2023-03-01T05:48:08;19.80;;;11.20;;
27113;SDS011;14648;49.730;8.614;2023-03-01T05:50:36;16.33;;;9.63;;
27113;SDS011;14648;49.730;8.614;2023-03-01T05:53:06;13.90;;;9.00;;
27113;SDS011;14648;49.730;8.614;2023-03-01T05:55:36;22.23;;;12.27;;
27113;SDS011;14648;49.730;8.614;2023-03-01T05:58:04;16.03;;;9.60;;
27113;SDS011;14648;49.730;8.614;2023-03-01T06:00:34;16.27;;;8.73;;
27113;SDS011;14648;49.730;8.614;2023-03-01T06:03:00;22.80;;;11.03;;
27113;SDS011;14648;49.730;8.614;2023-03-01T06:05:26;15.93;;;10.13;;
27113;SDS011;14648;49.730;8.614;2023-03-01T06:07:53;19.10;;;10.30;;
27113;SDS011;14648;49.730;8.614;2023-03-01T06:10:19;15.63;;;9.70;;
27113;SDS011;14648;49.730;8.614;2023-03-01T06:12:47;17.50;;;9.80;;
27113;SDS011;14648;49.730;8.614;2023-03-01T06:15:14;22.40;;;10.60;;
27113;SDS011;14648;49.730;8.614;2023-03-01T06:17:41;19.70;;;10.57;;
27113;SDS011;14648;49.730;8.614;2023-03-01T06:20:13;19.00;;;10.57;;
27113;SDS011;14648;49.730;8.614;2023-03-01T06:22:41;17.07;;;10.90;;
27113;SDS011;14648;49.730;8.614;2023-03-01T06:25:08;20.50;;;10.80;;
27113;SDS011;14648;49.730;8.614;2023-03-01T06:27:35;23.03;;;10.90;;
27113;SDS011;14648;49.730;8.614;2023-03-01T06:30:01;17.00;;;9.30;;
27113;SDS011;14648;49.730;8.614;2023-03-01T06:32:28;21.27;;;11.10;;
27113;SDS011;14648;49.730;8.614;2023-03-01T06:34:55;16.27;;;10.07;;
27113;SDS011;14648;49.730;8.614;2023-03-01T06:37:20;17.37;;;10.00;;
27113;SDS011;14648;49.730;8.614;2023-03-01T06:39:46;17.57;;;10.53;;
27113;SDS011;14648;49.730;8.614;2023-03-01T06:42:12;13.43;;;9.13;;
27113;SDS011;14648;49.730;8.614;2023-03-01T06:44:37;29.93;;;12.50;;
27113;SDS011;14648;49.730;8.614;2023-03-01T06:47:03;16.27;;;9.33;;
27113;SDS011;14648;49.730;8.614;2023-03-01T06:49:29;16.27;;;9.80;;
27113;SDS011;14648;49.730;8.614;2023-03-01T06:51:56;18.83;;;11.37;;
27113;SDS011;14648;49.730;8.614;2023-03-01T06:54:22;20.00;;;10.83;;
27113;SDS011;14648;49.730;8.614;2023-03-01T06:56:48;22.70;;;11.20;;
27113;SDS011;14648;49.730;8.614;2023-03-01T06:59:15;21.43;;;11.27;;
27113;SDS011;14648;49.730;8.614;2023-03-01T07:01:41;24.90;;;10.83;;
27113;SDS011;14648;49.730;8.614;2023-03-01T07:04:07;22.87;;;11.63;;
27113;SDS011;14648;49.730;8.614;2023-03-01T07:06:33;25.53;;;10.60;;
27113;SDS011;14648;49.730;8.614;2023-03-01T07:08:58;25.40;;;10.40;;
27113;SDS011;14648;49.730;8.614;2023-03-01T07:11:24;24.40;;;11.77;;
27113;SDS011;14648;49.730;8.614;2023-03-01T07:13:50;18.13;;;10.87;;
27113;SDS011;14648;49.730;8.614;2023-03-01T07:16:15;25.90;;;13.90;;
27113;SDS011;14648;49.730;8.614;2023-03-01T07:18:41;30.53;;;14.77;;
27113;SDS011;14648;49.730;8.614;2023-03-01T07:21:08;24.93;;;12.97;;
27113;SDS011;14648;49.730;8.614;2023-03-01T07:23:35;24.40;;;12.37;;
27113;SDS011;14648;49.730;8.614;2023-03-01T07:26:00;21.87;;;12.90;;
27113;SDS011;14648;49.730;8.614;2023-03-01T07:28:26;29.67;;;12.60;;
27113;SDS011;14648;49.730;8.614;2023-03-01T07:30:53;30.10;;;12.70;;
27113;SDS011;14648;49.730;8.614;2023-03-01T07:33:25;25.07;;;13.20;;
27113;SDS011;14648;49.730;8.614;2023-03-01T07:35:55;21.03;;;12.67;;
27113;SDS011;14648;49.730;8.614;2023-03-01T07:38:26;25.80;;;14.90;;
27113;SDS011;14648;49.730;8.614;2023-03-01T07:40:53;23.47;;;12.27;;
27113;SDS011;14648;49.730;8.614;2023-03-01T07:43:26;22.17;;;12.10;;
27113;SDS011;14648;49.730;8.614;2023-03-01T07:45:53;18.43;;;12.00;;
27113;SDS011;14648;49.730;8.614;2023-03-01T07:48:19;19.47;;;11.53;;
27113;SDS011;14648;49.730;8.614;2023-03-01T07:50:44;23.27;;;13.07;;
27113;SDS011;14648;49.730;8.614;2023-03-01T07:53:10;25.07;;;12.40;;
27113;SDS011;14648;49.730;8.614;2023-03-01T07:55:36;20.17;;;11.00;;
27113;SDS011;14648;49.730;8.614;2023-03-01T07:58:02;20.30;;;13.00;;
27113;SDS011;14648;49.730;8.614;2023-03-01T08:00:28;23.90;;;14.80;;
27113;SDS011;14648;49.730;8.614;2023-03-01T08:02:54;26.03;;;11.13;;
27113;SDS011;14648;49.730;8.614;2023-03-01T08:05:23;20.90;;;11.23;;
27113;SDS011;14648;49.730;8.614;2023-03-01T08:07:49;18.93;;;12.10;;
27113;SDS011;14648;49.730;8.614;2023-03-01T08:10:15;29.97;;;12.20;;
27113;SDS011;14648;49.730;8.614;2023-03-01T08:12:41;22.10;;;12.63;;
27113;SDS011;14648;49.730;8.614;2023-03-01T08:15:07;18.90;;;11.90;;
27113;SDS011;14648;49.730;8.614;2023-03-01T08:17:33;18.93;;;12.20;;
27113;SDS011;14648;49.730;8.614;2023-03-01T08:19:59;20.77;;;12.47;;
27113;SDS011;14648;49.730;8.614;2023-03-01T08:22:25;18.87;;;12.10;;
27113;SDS011;14648;49.730;8.614;2023-03-01T08:24:50;20.87;;;12.47;;
27113;SDS011;14648;49.730;8.614;2023-03-01T08:27:16;21.50;;;12.50;;
27113;SDS011;14648;49.730;8.614;2023-03-01T08:29:42;30.80;;;12.40;;
27113;SDS011;14648;49.730;8.614;2023-03-01T08:32:08;19.90;;;11.17;;
27113;SDS011;14648;49.730;8.614;2023-03-01T08:34:33;19.60;;;11.83;;
27113;SDS011;14648;49.730;8.614;2023-03-01T08:37:00;21.90;;;12.70;;
27113;SDS011;14648;49.730;8.614;2023-03-01T08:39:27;26.70;;;13.03;;
27113;SDS011;14648;49.730;8.614;2023-03-01T08:41:52;21.20;;;10.23;;
27113;SDS011;14648;49.730;8.614;2023-03-01T08:44:18;22.10;;;12.07;;
27113;SDS011;14648;49.730;8.614;2023-03-01T08:46:46;26.30;;;12.93;;
27113;SDS011;14648;49.730;8.614;2023-03-01T08:49:18;21.00;;;13.20;;
27113;SDS011;14648;49.730;8.614;2023-03-01T08:51:45;21.27;;;12.67;;
27113;SDS011;14648;49.730;8.614;2023-03-01T08:54:13;22.03;;;12.50;;
27113;SDS011;14648;49.730;8.614;2023-03-01T08:56:41;22.50;;;13.00;;
27113;SDS011;14648;49.730;8.614;2023-03-01T08:59:07;18.80;;;12.20;;
27113;SDS011;14648;49.730;8.614;2023-03-01T09:01:35;21.80;;;13.57;;
27113;SDS011;14648;49.730;8.614;2023-03-01T09:04:02;23.07;;;12.60;;
27113;SDS011;14648;49.730;8.614;2023-03-01T09:06:30;22.70;;;12.50;;
27113;SDS011;14648;49.730;8.614;2023-03-01T09:08:59;18.57;;;11.77;;
27113;SDS011;14648;49.730;8.614;2023-03-01T09:11:24;24.57;;;12.80;;
27113;SDS011;14648;49.730;8.614;2023-03-01T09:13:50;19.93;;;13.37;;
27113;SDS011;14648;49.730;8.614;2023-03-01T09:16:17;23.40;;;13.47;;
27113;SDS011;14648;49.730;8.614;2023-03-01T09:18:48;22.50;;;13.27;;
27113;SDS011;14648;49.730;8.614;2023-03-01T09:21:18;21.40;;;12.50;;
27113;SDS011;14648;49.730;8.614;2023-03-01T09:23:46;22.83;;;14.40;;
27113;SDS011;14648;49.730;8.614;2023-03-01T09:26:14;19.57;;;13.30;;
27113;SDS011;14648;49.730;8.614;2023-03-01T09:28:44;19.77;;;12.33;;
27113;SDS011;14648;49.730;8.614;2023-03-01T09:31:16;21.17;;;12.40;;
27113;SDS011;14648;49.730;8.614;2023-03-01T09:33:45;21.90;;;13.30;;
27113;SDS011;14648;49.730;8.614;2023-03-01T09:36:17;20.30;;;13.17;;
27113;SDS011;14648;49.730;8.614;2023-03-01T09:38:46;19.70;;;13.30;;
27113;SDS011;14648;49.730;8.614;2023-03-01T09:43:50;20.63;;;12.27;;
27113;SDS011;14648;49.730;8.614;2023-03-01T09:46:19;21.40;;;13.73;;
27113;SDS011;14648;49.730;8.614;2023-03-01T09:48:50;19.70;;;13.17;;
27113;SDS011;14648;49.730;8.614;2023-03-01T09:51:23;26.13;;;12.27;;
27113;SDS011;14648;49.730;8.614;2023-03-01T09:53:56;19.80;;;13.40;;
27113;SDS011;14648;49.730;8.614;2023-03-01T10:04:34;24.27;;;15.10;;
27113;SDS011;14648;49.730;8.614;2023-03-01T10:07:26;26.77;;;14.10;;
27113;SDS011;14648;49.730;8.614;2023-03-01T10:10:06;25.83;;;14.00;;
27113;SDS011;14648;49.730;8.614;2023-03-01T10:12:37;23.03;;;14.60;;
27113;SDS011;14648;49.730;8.614;2023-03-01T10:20:24;24.63;;;14.83;;
27113;SDS011;14648;49.730;8.614;2023-03-01T10:22:55;27.33;;;14.03;;
27113;SDS011;14648;49.730;8.614;2023-03-01T10:25:30;27.20;;;16.40;;
27113;SDS011;14648;49.730;8.614;2023-03-01T10:28:31;15.43;;;9.70;;
27113;SDS011;14648;49.730;8.614;2023-03-01T10:31:27;21.93;;;14.60;;
27113;SDS011;14648;49.730;8.614;2023-03-01T10:34:08;24.47;;;14.90;;
27113;SDS011;14648;49.730;8.614;2023-03-01T10:36:39;22.13;;;15.00;;
27113;SDS011;14648;49.730;8.614;2023-03-01T10:39:20;24.50;;;15.70;;
27113;SDS011;14648;49.730;8.614;2023-03-01T10:41:54;28.50;;;15.93;;
27113;SDS011;14648;49.730;8.614;2023-03-01T10:44:38;24.07;;;15.73;;
27113;SDS011;14648;49.730;8.614;2023-03-01T10:47:12;20.90;;;10.97;;
27113;SDS011;14648;49.730;8.614;2023-03-01T10:52:21;25.20;;;14.47;;
27113;SDS011;14648;49.730;8.614;2023-03-01T10:55:22;26.30;;;14.43;;
27113;SDS011;14648;49.730;8.614;2023-03-01T11:08:47;21.57;;;14.57;;
27113;SDS011;14648;49.730;8.614;2023-03-01T11:11:19;23.27;;;16.67;;
27113;SDS011;14648;49.730;8.614;2023-03-01T11:16:43;22.20;;;13.43;;
27113;SDS011;14648;49.730;8.614;2023-03-01T11:21:38;21.60;;;15.30;;
27113;SDS011;14648;49.730;8.614;2023-03-01T11:24:37;24.30;;;15.70;;
27113;SDS011;14648;49.730;8.614;2023-03-01T11:27:23;23.00;;;15.07;;
27113;SDS011;14648;49.730;8.614;2023-03-01T11:30:15;19.30;;;12.07;;
27113;SDS011;14648;49.730;8.614;2023-03-01T11:32:48;17.20;;;13.00;;
27113;SDS011;14648;49.730;8.614;2023-03-01T11:35:28;18.70;;;12.63;;
27113;SDS011;14648;49.730;8.614;2023-03-01T11:43:19;19.33;;;13.70;;
27113;SDS011;14648;49.730;8.614;2023-03-01T11:48:59;20.83;;;14.00;;
27113;SDS011;14648;49.730;8.614;2023-03-01T11:54:39;17.40;;;11.47;;
27113;SDS011;14648;49.730;8.614;2023-03-01T12:01:02;18.70;;;12.93;;
27113;SDS011;14648;49.730;8.614;2023-03-01T12:06:31;21.67;;;15.47;;
27113;SDS011;14648;49.730;8.614;2023-03-01T12:17:58;19.13;;;13.10;;
27113;SDS011;14648;49.730;8.614;2023-03-01T12:23:29;22.27;;;12.63;;
27113;SDS011;14648;49.730;8.614;2023-03-01T12:26:23;23.00;;;15.67;;
27113;SDS011;14648;49.730;8.614;2023-03-01T12:43:41;20.00;;;13.17;;
27113;SDS011;14648;49.730;8.614;2023-03-01T12:49:41;21.50;;;12.90;;
27113;SDS011;14648;49.730;8.614;2023-03-01T13:00:51;16.70;;;13.07;;
27113;SDS011;14648;49.730;8.614;2023-03-01T13:06:19;17.13;;;12.20;;
27113;SDS011;14648;49.730;8.614;2023-03-01T13:11:59;15.60;;;10.37;;
27113;SDS011;14648;49.730;8.614;2023-03-01T13:16:53;13.97;;;10.23;;
27113;SDS011;14648;49.730;8.614;2023-03-01T13:19:21;17.80;;;11.87;;
27113;SDS011;14648;49.730;8.614;2023-03-01T13:21:49;13.70;;;10.27;;
27113;SDS011;14648;49.730;8.614;2023-03-01T13:24:26;16.27;;;11.60;;
27113;SDS011;14648;49.730;8.614;2023-03-01T13:32:21;16.20;;;10.60;;
27113;SDS011;14648;49.730;8.614;2023-03-01T13:37:41;13.87;;;9.77;;
27113;SDS011;14648;49.730;8.614;2023-03-01T13:42:42;12.23;;;8.50;;
27113;SDS011;14648;49.730;8.614;2023-03-01T13:48:16;11.90;;;9.13;;
27113;SDS011;14648;49.730;8.614;2023-03-01T13:50:53;11.40;;;8.23;;
27113;SDS011;14648;49.730;8.614;2023-03-01T13:53:25;12.70;;;8.10;;
27113;SDS011;14648;49.730;8.614;2023-03-01T13:56:00;13.33;;;9.50;;
27113;SDS011;14648;49.730;8.614;2023-03-01T13:58:33;11.40;;;8.57;;
27113;SDS011;14648;49.730;8.614;2023-03-01T14:03:52;13.33;;;8.50;;
27113;SDS011;14648;49.730;8.614;2023-03-01T14:06:25;12.73;;;7.60;;
27113;SDS011;14648;49.730;8.614;2023-03-01T14:09:16;14.17;;;9.03;;
27113;SDS011;14648;49.730;8.614;2023-03-01T14:14:52;14.53;;;10.00;;
27113;SDS011;14648;49.730;8.614;2023-03-01T14:20:20;11.33;;;7.03;;
27113;SDS011;14648;49.730;8.614;2023-03-01T14:22:49;13.60;;;8.13;;
27113;SDS011;14648;49.730;8.614;2023-03-01T14:25:29;15.00;;;9.67;;
27113;SDS011;14648;49.730;8.614;2023-03-01T14:30:42;12.33;;;8.70;;
27113;SDS011;14648;49.730;8.614;2023-03-01T14:33:20;12.40;;;9.00;;
27113;SDS011;14648;49.730;8.614;2023-03-01T14:35:53;11.20;;;8.37;;
27113;SDS011;14648;49.730;8.614;2023-03-01T14:38:22;9.00;;;7.60;;
27113;SDS011;14648;49.730;8.614;2023-03-01T14:41:00;15.13;;;9.27;;
27113;SDS011;14648;49.730;8.614;2023-03-01T14:43:31;12.93;;;8.03;;
27113;SDS011;14648;49.730;8.614;2023-03-01T14:45:58;12.60;;;8.47;;
27113;SDS011;14648;49.730;8.614;2023-03-01T14:48:23;12.03;;;8.63;;
27113;SDS011;14648;49.730;8.614;2023-03-01T14:50:51;9.93;;;7.80;;
27113;SDS011;14648;49.730;8.614;2023-03-01T14:53:18;11.33;;;8.40;;
27113;SDS011;14648;49.730;8.614;2023-03-01T14:55:53;11.53;;;7.87;;
27113;SDS011;14648;49.730;8.614;2023-03-01T14:58:27;10.90;;;8.37;;
27113;SDS011;14648;49.730;8.614;2023-03-01T15:00:57;9.37;;;7.47;;
27113;SDS011;14648;49.730;8.614;2023-03-01T15:03:40;9.63;;;7.23;;
27113;SDS011;14648;49.730;8.614;2023-03-01T15:06:09;10.60;;;6.57;;
27113;SDS011;14648;49.730;8.614;2023-03-01T15:08:41;8.53;;;6.70;;
27113;SDS011;14648;49.730;8.614;2023-03-01T15:11:24;13.33;;;7.47;;
27113;SDS011;14648;49.730;8.614;2023-03-01T15:13:55;11.77;;;7.30;;
27113;SDS011;14648;49.730;8.614;2023-03-01T15:16:22;10.50;;;7.10;;
27113;SDS011;14648;49.730;8.614;2023-03-01T15:18:51;12.00;;;7.40;;
27113;SDS011;14648;49.730;8.614;2023-03-01T15:21:31;12.10;;;7.13;;
27113;SDS011;14648;49.730;8.614;2023-03-01T15:27:12;9.63;;;6.93;;
27113;SDS011;14648;49.730;8.614;2023-03-01T15:29:40;11.33;;;8.13;;
27113;SDS011;14648;49.730;8.614;2023-03-01T15:32:31;9.93;;;7.50;;
27113;SDS011;14648;49.730;8.614;2023-03-01T15:35:32;12.80;;;7.83;;
27113;SDS011;14648;49.730;8.614;2023-03-01T15:40:58;11.73;;;8.00;;
27113;SDS011;14648;49.730;8.614;2023-03-01T15:46:31;15.30;;;8.60;;
27113;SDS011;14648;49.730;8.614;2023-03-01T15:49:00;16.80;;;9.50;;
27113;SDS011;14648;49.730;8.614;2023-03-01T15:51:31;13.23;;;8.87;;
27113;SDS011;14648;49.730;8.614;2023-03-01T15:54:22;14.90;;;10.00;;
27113;SDS011;14648;49.730;8.614;2023-03-01T15:56:48;15.77;;;9.50;;
27113;SDS011;14648;49.730;8.614;2023-03-01T15:59:15;14.73;;;8.90;;
27113;SDS011;14648;49.730;8.614;2023-03-01T16:01:42;16.80;;;10.43;;
27113;SDS011;14648;49.730;8.614;2023-03-01T16:04:12;16.13;;;9.47;;
27113;SDS011;14648;49.730;8.614;2023-03-01T16:06:46;16.33;;;9.23;;
27113;SDS011;14648;49.730;8.614;2023-03-01T16:09:22;13.00;;;9.60;;
27113;SDS011;14648;49.730;8.614;2023-03-01T16:11:50;11.70;;;8.80;;
27113;SDS011;14648;49.730;8.614;2023-03-01T16:14:17;12.50;;;9.87;;
27113;SDS011;14648;49.730;8.614;2023-03-01T16:16:44;14.33;;;9.50;;
27113;SDS011;14648;49.730;8.614;2023-03-01T16:19:10;13.87;;;8.80;;
27113;SDS011;14648;49.730;8.614;2023-03-01T16:21:37;19.47;;;10.90;;
27113;SDS011;14648;49.730;8.614;2023-03-01T16:24:03;18.97;;;10.97;;
27113;SDS011;14648;49.730;8.614;2023-03-01T16:26:32;15.33;;;9.27;;
27113;SDS011;14648;49.730;8.614;2023-03-01T16:28:58;16.80;;;10.10;;
27113;SDS011;14648;49.730;8.614;2023-03-01T16:31:23;15.73;;;9.50;;
27113;SDS011;14648;49.730;8.614;2023-03-01T16:33:55;13.07;;;9.37;;
27113;SDS011;14648;49.730;8.614;2023-03-01T16:36:23;17.40;;;10.20;;
27113;SDS011;14648;49.730;8.614;2023-03-01T16:38:53;17.20;;;10.87;;
27113;SDS011;14648;49.730;8.614;2023-03-01T16:41:21;14.20;;;9.97;;
27113;SDS011;14648;49.730;8.614;2023-03-01T16:43:48;18.03;;;10.80;;
27113;SDS011;14648;49.730;8.614;2023-03-01T16:46:15;21.47;;;11.30;;
27113;SDS011;14648;49.730;8.614;2023-03-01T16:48:45;14.57;;;9.33;;
27113;SDS011;14648;49.730;8.614;2023-03-01T16:51:11;23.67;;;10.03;;
27113;SDS011;14648;49.730;8.614;2023-03-01T16:53:37;18.40;;;9.60;;
27113;SDS011;14648;49.730;8.614;2023-03-01T16:56:04;12.33;;;9.60;;
27113;SDS011;14648;49.730;8.614;2023-03-01T16:58:33;15.80;;;10.00;;
27113;SDS011;14648;49.730;8.614;2023-03-01T17:01:03;18.87;;;9.37;;
27113;SDS011;14648;49.730;8.614;2023-03-01T17:03:41;20.40;;;10.40;;
27113;SDS011;14648;49.730;8.614;2023-03-01T17:06:09;18.30;;;10.10;;
27113;SDS011;14648;49.730;8.614;2023-03-01T17:08:37;14.43;;;9.50;;
27113;SDS011;14648;49.730;8.614;2023-03-01T17:11:08;15.80;;;10.40;;